createdAt,value
2018-04-02T00:03:01.064Z,4.20
2018-04-02T00:08:29.195Z,4.20
2018-04-02T00:13:57.353Z,4.10
2018-04-02T00:19:26.282Z,4.10
2018-04-02T00:24:54.435Z,4.00
2018-04-02T00:30:22.575Z,4.00
2018-04-02T00:35:50.868Z,4.00
2018-04-02T00:41:18.999Z,3.90
2018-04-02T00:46:47.113Z,3.90
2018-04-02T00:52:15.254Z,3.80
2018-04-02T00:57:43.381Z,3.80
2018-04-02T01:03:11.517Z,3.80
2018-04-02T01:08:39.655Z,3.70
2018-04-02T01:14:07.787Z,3.70
2018-04-02T01:19:36.690Z,3.70
2018-04-02T01:25:04.813Z,3.70
2018-04-02T01:30:32.937Z,3.70
2018-04-02T01:36:01.067Z,3.60
2018-04-02T01:41:29.281Z,3.60
2018-04-02T01:46:57.415Z,3.60
2018-04-02T01:52:26.321Z,3.50
2018-04-02T01:57:54.517Z,3.40
2018-04-02T02:03:22.685Z,3.40
2018-04-02T02:08:51.588Z,3.30
2018-04-02T02:14:19.723Z,3.10
2018-04-02T02:19:47.864Z,3.10
2018-04-02T02:25:16.765Z,2.90
2018-04-02T02:30:44.896Z,2.80
2018-04-02T02:36:13.036Z,2.80
2018-04-02T02:41:41.161Z,2.70
2018-04-02T02:47:10.059Z,2.60
2018-04-02T02:52:38.182Z,2.50
2018-04-02T02:58:06.307Z,2.40
2018-04-02T03:03:34.442Z,2.30
2018-04-02T03:09:02.566Z,2.30
2018-04-02T03:14:30.714Z,2.20
2018-04-02T03:19:58.832Z,2.20
2018-04-02T03:25:26.989Z,2.10
2018-04-02T03:30:55.131Z,2.00
2018-04-02T03:36:24.072Z,2.00
2018-04-02T03:41:52.230Z,2.00
2018-04-02T03:47:20.363Z,1.90
2018-04-02T03:52:48.507Z,1.90
2018-04-02T03:58:16.635Z,1.80
2018-04-02T04:03:44.762Z,1.80
2018-04-02T04:09:12.876Z,1.70
2018-04-02T04:14:41.002Z,1.70
2018-04-02T04:20:09.117Z,1.60
2018-04-02T04:25:37.254Z,1.60
2018-04-02T04:31:05.373Z,1.50
2018-04-02T04:36:33.515Z,1.50
2018-04-02T04:42:02.410Z,1.40
2018-04-02T04:47:30.540Z,1.40
2018-04-02T04:52:58.667Z,1.30
2018-04-02T04:58:26.808Z,1.30
2018-04-02T05:03:54.959Z,1.20
2018-04-02T05:09:23.103Z,1.20
2018-04-02T05:14:51.268Z,1.10
2018-04-02T05:20:20.158Z,1.00
2018-04-02T05:25:48.304Z,1.00
2018-04-02T05:31:16.443Z,1.00
2018-04-02T05:36:45.335Z,1.00
2018-04-02T05:42:13.459Z,1.20
2018-04-02T05:47:41.618Z,1.30
2018-04-02T05:53:10.540Z,1.50
2018-04-02T05:58:39.451Z,1.70
2018-04-02T06:04:07.587Z,2.00
2018-04-02T06:09:35.719Z,2.20
2018-04-02T06:15:04.620Z,2.50
2018-04-02T06:20:32.738Z,2.80
2018-04-02T06:26:00.870Z,3.10
2018-04-02T06:31:29.004Z,3.40
2018-04-02T06:36:57.226Z,3.70
2018-04-02T06:42:25.346Z,4.00
2018-04-02T06:47:53.474Z,4.20
2018-04-02T06:53:22.369Z,4.50
2018-04-02T06:58:50.506Z,4.90
2018-04-02T07:04:18.649Z,5.20
2018-04-02T07:09:47.543Z,5.50
2018-04-02T07:15:15.708Z,5.80
2018-04-02T07:20:44.617Z,6.10
2018-04-02T07:26:12.747Z,6.50
2018-04-02T07:31:40.895Z,6.80
2018-04-02T07:37:09.793Z,7.10
2018-04-02T07:42:37.931Z,7.30
2018-04-02T07:48:06.048Z,7.50
2018-04-02T07:53:34.185Z,7.60
2018-04-02T07:59:03.106Z,7.80
2018-04-02T08:04:31.246Z,7.90
2018-04-02T08:10:00.151Z,8.20
2018-04-02T08:15:28.312Z,8.30
2018-04-02T08:20:56.624Z,8.50
2018-04-02T08:26:25.544Z,8.60
2018-04-02T08:31:54.490Z,8.70
2018-04-02T08:37:23.408Z,9.00
2018-04-02T08:42:51.578Z,9.20
2018-04-02T08:48:19.713Z,9.40
2018-04-02T08:53:48.289Z,9.60
2018-04-02T08:59:16.419Z,9.70
2018-04-02T09:04:45.358Z,9.70
2018-04-02T09:10:14.273Z,9.60
2018-04-02T09:15:42.417Z,9.90
2018-04-02T09:21:10.624Z,10.20
2018-04-02T09:26:38.783Z,10.30
2018-04-02T09:32:06.940Z,10.40
2018-04-02T09:37:35.087Z,10.60
2018-04-02T09:43:04.007Z,10.80
2018-04-02T09:48:32.150Z,10.90
2018-04-02T09:54:01.137Z,11.20
2018-04-02T09:59:30.693Z,11.40
2018-04-02T10:04:58.870Z,11.60
2018-04-02T10:10:27.047Z,11.80
2018-04-02T10:15:55.132Z,12.00
2018-04-02T10:21:23.297Z,12.10
2018-04-02T10:26:52.376Z,12.20
2018-04-02T10:32:20.536Z,12.60
2018-04-02T10:37:48.683Z,12.70
2018-04-02T10:43:17.641Z,12.90
2018-04-02T10:48:45.771Z,13.10
2018-04-02T10:54:13.909Z,13.20
2018-04-02T10:59:42.098Z,13.50
2018-04-02T11:05:10.199Z,13.60
2018-04-02T11:10:38.326Z,13.70
2018-04-02T11:16:06.469Z,13.80
2018-04-02T11:21:35.366Z,14.10
2018-04-02T11:27:03.517Z,14.10
2018-04-02T11:32:32.439Z,14.30
2018-04-02T11:38:00.587Z,14.20
2018-04-02T11:43:28.771Z,14.20
2018-04-02T11:48:56.927Z,14.40
2018-04-02T11:54:25.128Z,14.60
2018-04-02T11:59:53.331Z,14.80
2018-04-02T12:05:21.501Z,15.00
2018-04-02T12:10:49.714Z,15.00
2018-04-02T12:16:17.868Z,15.20
2018-04-02T12:21:46.127Z,15.40
2018-04-02T12:27:14.271Z,15.50
2018-04-02T12:32:42.428Z,15.50
2018-04-02T12:38:10.821Z,15.70
2018-04-02T12:43:39.010Z,15.90
2018-04-02T12:49:09.101Z,16.10
2018-04-02T12:54:37.286Z,16.40
2018-04-02T13:00:05.454Z,16.60
2018-04-02T13:05:33.598Z,17.10
2018-04-02T13:11:01.799Z,17.80
2018-04-02T13:16:30.081Z,18.50
2018-04-02T13:21:59.019Z,19.30
2018-04-02T13:27:27.198Z,19.90
2018-04-02T13:32:55.378Z,20.00
2018-04-02T13:38:23.553Z,20.30
2018-04-02T13:43:51.752Z,20.50
2018-04-02T13:49:20.252Z,21.20
2018-04-02T13:54:48.414Z,22.00
2018-04-02T14:00:16.596Z,22.60
2018-04-02T14:05:44.745Z,23.40
2018-04-02T14:11:12.948Z,24.00
2018-04-02T14:16:41.123Z,24.50
2018-04-02T14:22:09.673Z,24.30
2018-04-02T14:27:37.869Z,24.00
2018-04-02T14:33:06.049Z,25.00
2018-04-02T14:38:34.225Z,25.50
2018-04-02T14:44:03.162Z,26.80
2018-04-02T14:49:32.128Z,27.90
2018-04-02T14:55:00.340Z,29.10
2018-04-02T15:00:29.553Z,29.70
2018-04-02T15:05:57.725Z,30.10
2018-04-02T15:11:26.139Z,30.10
2018-04-02T15:16:54.334Z,29.80
2018-04-02T15:22:22.547Z,28.40
2018-04-02T15:27:51.634Z,27.50
2018-04-02T15:33:19.825Z,26.90
2018-04-02T15:38:47.982Z,25.50
2018-04-02T15:44:17.283Z,24.00
2018-04-02T15:49:46.223Z,22.60
2018-04-02T15:55:15.145Z,21.50
2018-04-02T16:00:43.494Z,20.60
2018-04-02T16:06:11.651Z,19.70
2018-04-02T16:11:39.794Z,18.90
2018-04-02T16:17:08.001Z,18.20
2018-04-02T16:22:36.166Z,17.60
2018-04-02T16:28:05.259Z,17.10
2018-04-02T16:33:33.439Z,16.60
2018-04-02T16:39:02.370Z,16.20
2018-04-02T16:44:30.662Z,15.90
2018-04-02T16:49:58.797Z,15.60
2018-04-02T16:55:27.136Z,15.30
2018-04-02T17:00:56.993Z,15.00
2018-04-02T17:06:25.917Z,14.80
2018-04-02T17:11:54.314Z,14.50
2018-04-02T17:17:22.505Z,14.20
2018-04-02T17:22:51.459Z,13.90
2018-04-02T17:28:19.635Z,13.70
2018-04-02T17:33:48.533Z,13.40
2018-04-02T17:39:16.693Z,13.10
2018-04-02T17:44:45.627Z,12.90
2018-04-02T17:50:14.730Z,12.70
2018-04-02T17:55:42.902Z,12.50
2018-04-02T18:01:15.152Z,12.40
2018-04-02T18:06:43.296Z,12.20
2018-04-02T18:12:11.480Z,12.10
2018-04-02T18:17:39.615Z,12.00
2018-04-02T18:23:07.810Z,11.90
2018-04-02T18:28:35.957Z,11.80
2018-04-02T18:34:04.119Z,11.70
2018-04-02T18:39:33.030Z,11.60
2018-04-02T18:45:01.238Z,11.60
2018-04-02T18:50:29.404Z,11.60
2018-04-02T18:55:58.337Z,11.50
2018-04-02T19:01:26.502Z,11.50
2018-04-02T19:06:55.541Z,11.40
2018-04-02T19:12:23.737Z,11.40
2018-04-02T19:17:51.888Z,11.40
2018-04-02T19:23:20.029Z,11.30
2018-04-02T19:28:48.254Z,11.30
2018-04-02T19:34:16.421Z,11.30
2018-04-02T19:39:44.558Z,11.20
2018-04-02T19:45:12.708Z,11.10
2018-04-02T19:50:40.873Z,11.00
2018-04-02T19:56:10.618Z,10.90
2018-04-02T20:01:39.542Z,10.80
2018-04-02T20:07:07.676Z,10.70
2018-04-02T20:12:36.580Z,10.70
2018-04-02T20:18:04.725Z,10.60
2018-04-02T20:23:32.870Z,10.60
2018-04-02T20:29:01.014Z,10.60
2018-04-02T20:34:29.166Z,10.50
2018-04-02T20:39:57.319Z,10.50
2018-04-02T20:45:26.371Z,10.50
2018-04-02T20:50:54.577Z,10.50
2018-04-02T20:56:23.737Z,10.40
2018-04-02T21:01:51.889Z,10.40
2018-04-02T21:07:20.041Z,10.40
2018-04-02T21:12:48.195Z,10.40
2018-04-02T21:18:16.352Z,10.40
2018-04-02T21:23:46.437Z,10.30
2018-04-02T21:29:14.588Z,10.90
2018-04-02T21:34:43.523Z,10.50
2018-04-02T21:40:12.446Z,10.40
2018-04-02T21:45:41.358Z,10.30
2018-04-02T21:51:09.516Z,10.20
2018-04-02T21:56:38.476Z,10.10
2018-04-02T22:02:06.672Z,10.00
2018-04-02T22:07:35.622Z,9.80
2018-04-02T22:13:03.766Z,9.60
2018-04-02T22:18:31.951Z,9.50
2018-04-02T22:24:01.544Z,9.30
2018-04-02T22:29:30.450Z,9.20
2018-04-02T22:34:59.378Z,9.10
2018-04-02T22:40:28.283Z,8.90
2018-04-02T22:45:56.451Z,8.70
2018-04-02T22:51:24.612Z,8.60
2018-04-02T22:56:52.762Z,8.50
2018-04-02T23:02:21.783Z,8.40
2018-04-02T23:07:49.930Z,8.30
2018-04-02T23:13:18.099Z,8.30
2018-04-02T23:18:46.232Z,8.30
2018-04-02T23:24:14.382Z,8.30
2018-04-02T23:29:43.280Z,8.40
2018-04-02T23:35:11.439Z,8.50
2018-04-02T23:40:40.329Z,8.50
2018-04-02T23:46:08.486Z,8.50
2018-04-02T23:51:36.635Z,8.40
2018-04-02T23:57:05.529Z,8.50
